Time;durP1;ratioP1;P1;durP2;ratioP2;P2;SDS_P1;SDS_P2;PMS_P1;PMS_P2;Temp;Humidity;BMP_temperature;BMP_pressure;BME280_temperature;BME280_humidity;BME280_pressure;Samples;Min_cycle;Max_cycle;Signal;HPM_P1;HPM_P2
2023/01/25 00:01:20;;;;;;;11.23;7.80;;;;;;;0.13;77.29;94921.00;4980209;28;20487;-78
2023/01/25 00:03:46;;;;;;;10.18;7.70;;;;;;;0.17;77.43;94937.03;4978441;28;20029;-79
2023/01/25 00:06:11;;;;;;;11.38;7.97;;;;;;;0.16;77.64;94938.88;4978415;28;20036;-78
2023/01/25 00:08:37;;;;;;;9.52;7.22;;;;;;;-0.21;77.45;94880.59;4980344;28;20517;-80
2023/01/25 00:11:03;;;;;;;13.52;7.85;;;;;;;0.07;77.00;94931.53;4956079;28;20046;-79
2023/01/25 00:13:31;;;;;;;12.10;8.10;;;;;;;-0.70;79.27;94893.81;4979922;28;20035;-80
2023/01/25 00:16:04;;;;;;;13.13;8.70;;;;;;;-0.97;81.30;94921.97;4980155;28;20034;-79
2023/01/25 00:18:29;;;;;;;11.75;8.35;;;;;;;-1.22;82.11;94879.44;4979188;28;20021;-81
2023/01/25 00:20:55;;;;;;;11.95;7.82;;;;;;;-0.86;81.87;94910.84;4979621;28;20030;-79
2023/01/25 00:23:20;;;;;;;14.40;8.82;;;;;;;-1.26;82.94;94920.81;4978516;28;20121;-80
2023/01/25 00:25:46;;;;;;;14.85;9.10;;;;;;;-1.22;83.54;94932.44;4981118;28;20066;-79
2023/01/25 00:28:11;;;;;;;13.43;8.30;;;;;;;-1.31;83.84;94925.09;4977606;28;20050;-81
2023/01/25 00:30:36;;;;;;;13.88;8.25;;;;;;;-1.34;83.27;94913.25;4963262;28;20628;-80
2023/01/25 00:33:28;;;;;;;14.38;9.50;;;;;;;-1.28;84.17;94935.91;4978711;28;20487;-81
2023/01/25 00:35:55;;;;;;;12.98;9.63;;;;;;;-0.84;83.08;94913.25;4927440;28;20042;-81
2023/01/25 00:38:33;;;;;;;14.00;9.82;;;;;;;-1.13;82.72;94910.28;4979321;28;20366;-80
2023/01/25 00:40:59;;;;;;;14.45;9.98;;;;;;;-0.74;82.01;94908.31;4979498;28;20448;-79
2023/01/25 00:43:25;;;;;;;12.80;9.00;;;;;;;-0.42;81.55;94935.13;4980268;28;20046;-79
2023/01/25 00:45:51;;;;;;;11.30;8.38;;;;;;;-0.83;81.68;94931.31;4952094;28;20557;-80
2023/01/25 00:48:16;;;;;;;11.68;8.25;;;;;;;-0.80;81.42;94896.13;4972621;28;20033;-79
2023/01/25 00:50:42;;;;;;;11.55;8.57;;;;;;;-0.87;81.70;94942.41;4978972;28;20057;-79
2023/01/25 00:53:07;;;;;;;13.48;8.50;;;;;;;-1.34;82.76;94884.53;4979822;28;20081;-79
2023/01/25 00:55:33;;;;;;;12.60;8.27;;;;;;;-1.59;83.11;94904.59;4978314;28;20517;-80
2023/01/25 00:57:58;;;;;;;13.50;8.02;;;;;;;-1.19;83.75;94937.25;4962496;28;20124;-79
2023/01/25 01:00:23;;;;;;;11.65;7.78;;;;;;;-1.14;82.73;94913.09;4978517;28;20430;-79
2023/01/25 01:02:49;;;;;;;12.57;7.97;;;;;;;-1.40;83.54;94894.03;4979086;28;20133;-81
2023/01/25 01:05:14;;;;;;;16.00;9.82;;;;;;;-1.19;83.57;94934.63;4978032;28;20038;-80
2023/01/25 01:07:40;;;;;;;14.48;10.40;;;;;;;-1.28;83.71;94881.09;4978788;28;20034;-78
2023/01/25 01:10:06;;;;;;;19.90;13.15;;;;;;;-1.15;83.20;94932.38;4979248;28;20077;-79
2023/01/25 01:12:31;;;;;;;17.70;11.90;;;;;;;-1.23;84.07;94933.47;4978420;28;20046;-81
2023/01/25 01:14:57;;;;;;;16.35;11.45;;;;;;;-1.42;83.75;94884.81;4979878;28;20131;-79
2023/01/25 01:17:22;;;;;;;19.48;13.05;;;;;;;-1.23;83.39;94915.19;4960652;28;20684;-78
2023/01/25 01:19:47;;;;;;;16.73;12.25;;;;;;;-1.51;83.96;94905.13;4979100;28;20038;-79
2023/01/25 01:22:13;;;;;;;18.50;12.85;;;;;;;-1.36;83.72;94927.53;4978131;28;20400;-79
2023/01/25 01:24:38;;;;;;;16.58;11.75;;;;;;;-1.20;83.99;94935.63;4977432;28;20048;-78
2023/01/25 01:27:04;;;;;;;16.48;11.73;;;;;;;-0.87;83.47;94940.56;4980330;28;20015;-78
2023/01/25 01:29:29;;;;;;;15.82;9.68;;;;;;;-0.88;82.42;94912.88;4975769;28;20085;-78
2023/01/25 01:31:55;;;;;;;16.38;9.90;;;;;;;-1.21;82.90;94902.69;4978189;28;20495;-79
2023/01/25 01:34:20;;;;;;;14.82;9.15;;;;;;;-1.67;83.96;94915.28;4959031;28;20038;-79
2023/01/25 01:36:46;;;;;;;17.15;9.77;;;;;;;-1.55;84.70;94900.53;4977999;28;20457;-79
2023/01/25 01:39:12;;;;;;;16.13;9.38;;;;;;;-1.32;84.16;94916.47;4978781;28;20571;-78
2023/01/25 01:41:38;;;;;;;14.32;9.50;;;;;;;-1.21;83.66;94910.53;4977629;28;20839;-78
2023/01/25 01:44:03;;;;;;;15.75;9.07;;;;;;;-1.68;84.44;94875.38;4976510;28;20034;-80
2023/01/25 01:46:36;;;;;;;13.65;9.40;;;;;;;-1.33;83.90;94893.97;4978891;28;20034;-79
2023/01/25 01:49:25;;;;;;;17.02;10.25;;;;;;;-1.56;84.67;94914.63;4978597;28;20034;-78
2023/01/25 01:52:06;;;;;;;12.73;8.65;;;;;;;-1.39;84.40;94879.16;4977193;28;20061;-78
2023/01/25 01:54:47;;;;;;;14.82;8.88;;;;;;;-1.58;84.53;94869.69;4959214;28;20041;-79
2023/01/25 01:57:22;;;;;;;12.95;8.35;;;;;;;-1.59;84.33;94875.91;4979642;28;20050;-79
2023/01/25 01:59:59;;;;;;;12.10;7.68;;;;;;;-1.39;83.43;94890.41;4957630;28;20402;-80
2023/01/25 02:02:25;;;;;;;10.20;7.90;;;;;;;-1.25;83.61;94906.75;4977866;28;20046;-79
2023/01/25 02:04:55;;;;;;;11.85;7.55;;;;;;;-1.23;83.19;94909.16;4972761;28;20141;-79
2023/01/25 02:07:38;;;;;;;10.15;6.97;;;;;;;-1.30;83.80;94911.00;4946041;28;20042;-81
2023/01/25 02:10:10;;;;;;;8.95;5.20;;;;;;;-1.59;83.84;94888.94;4975311;28;20039;-80
2023/01/25 02:12:36;;;;;;;11.27;6.47;;;;;;;-1.35;82.83;94903.00;4975326;28;20254;-78
2023/01/25 02:15:01;;;;;;;10.15;6.35;;;;;;;-1.45;83.18;94901.69;4979357;28;20352;-80
2023/01/25 02:17:29;;;;;;;8.75;6.00;;;;;;;-1.09;83.19;94908.03;4957191;28;20042;-80
2023/01/25 02:19:55;;;;;;;7.60;5.82;;;;;;;-0.76;81.48;94907.72;4977937;28;20106;-79
2023/01/25 02:22:30;;;;;;;10.43;5.90;;;;;;;-0.37;80.40;94907.31;4974718;28;20046;-78
2023/01/25 02:25:04;;;;;;;;;;;;;;;-0.08;78.22;94911.00;4977476;28;20045;-80
2023/01/25 02:27:30;;;;;;;5.07;4.35;;;;;;;-0.30;77.72;94905.44;4959747;28;19909;-79
2023/01/25 02:29:57;;;;;;;6.30;3.97;;;;;;;-0.38;77.82;94892.66;4957045;28;20561;-79
2023/01/25 02:32:22;;;;;;;4.88;3.50;;;;;;;0.20;76.75;94910.47;4956616;28;20566;-79
2023/01/25 02:34:47;;;;;;;4.80;3.75;;;;;;;-0.04;75.57;94896.47;4976706;28;20310;-79
2023/01/25 02:37:14;;;;;;;5.25;3.88;;;;;;;-0.28;76.54;94900.78;4973838;28;20046;-78
2023/01/25 02:39:41;;;;;;;5.60;3.35;;;;;;;0.16;75.60;94901.44;4976476;28;20076;-79
2023/01/25 02:42:06;;;;;;;5.53;3.30;;;;;;;-0.12;75.12;94870.63;4974362;28;20038;-80
2023/01/25 02:44:32;;;;;;;5.68;3.72;;;;;;;0.18;74.76;94896.78;4958893;28;20096;-80
2023/01/25 02:46:58;;;;;;;6.13;4.32;;;;;;;0.23;74.53;94899.53;4973535;28;20142;-79
2023/01/25 02:49:24;;;;;;;5.13;4.07;;;;;;;-0.14;75.07;94899.59;4975677;28;20603;-80
2023/01/25 02:51:56;;;;;;;7.45;5.07;;;;;;;-0.67;76.81;94870.66;4956417;28;20045;-80
2023/01/25 02:54:23;;;;;;;5.30;3.78;;;;;;;-0.49;76.57;94901.22;4970364;28;20022;-80
2023/01/25 02:56:48;;;;;;;5.25;4.07;;;;;;;-0.80;77.84;94907.38;4973274;28;20049;-81
2023/01/25 02:59:14;;;;;;;5.32;3.90;;;;;;;-1.05;78.04;94857.78;4977271;28;20038;-80
2023/01/25 03:01:42;;;;;;;6.88;4.15;;;;;;;-0.78;79.06;94912.38;4975015;28;20602;-80
2023/01/25 03:04:08;;;;;;;6.70;4.20;;;;;;;-0.72;78.06;94911.50;4976573;28;20131;-79
2023/01/25 03:06:34;;;;;;;5.13;4.38;;;;;;;-0.73;78.26;94904.72;4977558;28;20072;-79
2023/01/25 03:09:01;;;;;;;8.55;5.78;;;;;;;-0.84;78.88;94905.41;4949651;28;20368;-79
2023/01/25 03:11:26;;;;;;;9.65;5.15;;;;;;;-0.84;78.38;94866.22;4975522;28;20039;-78
2023/01/25 03:13:52;;;;;;;6.68;4.68;;;;;;;-0.70;78.51;94888.59;4982200;28;20053;-79
2023/01/25 03:16:18;;;;;;;5.25;4.05;;;;;;;-0.57;78.00;94876.19;4979860;28;20469;-79
2023/01/25 03:18:43;;;;;;;5.60;3.63;;;;;;;-0.18;76.52;94888.00;4981568;28;20612;-79
2023/01/25 03:21:14;;;;;;;5.40;4.68;;;;;;;-0.53;76.42;94869.50;4963178;28;20054;-79
2023/01/25 03:23:40;;;;;;;5.60;4.43;;;;;;;-0.29;76.53;94880.91;4981354;28;20042;-79
2023/01/25 03:26:17;;;;;;;5.43;4.18;;;;;;;-0.19;76.26;94894.22;4977912;28;20538;-79
2023/01/25 03:28:42;;;;;;;7.45;5.40;;;;;;;-0.72;77.43;94861.88;4954397;28;20607;-80
2023/01/25 03:31:10;;;;;;;6.03;4.80;;;;;;;-0.85;77.64;94859.41;4977632;28;20047;-78
2023/01/25 03:33:36;;;;;;;6.05;4.93;;;;;;;-0.81;78.84;94882.25;4979262;28;20541;-79
2023/01/25 03:36:02;;;;;;;5.10;4.45;;;;;;;-1.08;79.82;94886.94;4977247;28;20018;-79
2023/01/25 03:38:29;;;;;;;7.07;5.05;;;;;;;-1.33;80.67;94885.34;4962289;28;20054;-78
2023/01/25 03:40:54;;;;;;;7.07;5.47;;;;;;;-0.84;79.97;94897.56;4977535;28;20066;-79
2023/01/25 03:43:20;;;;;;;7.90;5.18;;;;;;;-0.65;79.10;94896.56;4962031;28;20138;-80
2023/01/25 03:45:53;;;;;;;8.70;5.90;;;;;;;-0.87;79.46;94901.41;4980794;28;20628;-81
2023/01/25 03:48:19;;;;;;;7.22;5.28;;;;;;;-1.07;80.11;94882.53;4962387;28;20041;-79
2023/01/25 03:50:55;;;;;;;7.72;5.85;;;;;;;-1.31;81.32;94878.13;4959050;28;20395;-79
2023/01/25 03:53:31;;;;;;;6.88;4.97;;;;;;;-1.04;80.97;94888.09;4962990;28;20402;-78
2023/01/25 03:56:02;;;;;;;7.65;5.47;;;;;;;-1.28;81.93;94888.91;4959907;28;20085;-78
2023/01/25 03:58:29;;;;;;;7.28;5.43;;;;;;;-1.44;82.51;94892.84;4980565;28;20047;-78
2023/01/25 04:00:56;;;;;;;9.05;5.13;;;;;;;-1.42;83.01;94887.44;4958659;28;20135;-79
2023/01/25 04:03:22;;;;;;;8.27;5.57;;;;;;;-1.29;82.29;94884.72;4960717;28;20019;-80
2023/01/25 04:05:48;;;;;;;9.55;7.00;;;;;;;-1.75;82.42;94858.16;4956634;28;20066;-79
2023/01/25 04:08:13;;;;;;;9.23;5.90;;;;;;;-1.72;83.55;94891.66;4955972;28;20125;-79
2023/01/25 04:10:39;;;;;;;8.20;5.95;;;;;;;-1.87;83.31;94832.75;4949341;28;20179;-79
2023/01/25 04:13:04;;;;;;;8.02;5.90;;;;;;;-1.75;82.95;94852.97;4959514;28;20891;-78
2023/01/25 04:15:30;;;;;;;7.88;5.68;;;;;;;-1.32;82.56;94859.03;4961038;28;20133;-79
2023/01/25 04:17:55;;;;;;;11.75;7.15;;;;;;;-1.46;82.68;94883.66;4958051;28;20500;-79
2023/01/25 04:20:21;;;;;;;7.95;6.20;;;;;;;-1.88;83.55;94859.03;4960558;28;20050;-82
2023/01/25 04:22:47;;;;;;;9.80;5.82;;;;;;;-1.57;83.41;94879.09;4957774;28;20558;-79
2023/01/25 04:25:12;;;;;;;11.13;6.70;;;;;;;-1.28;82.55;94885.50;4960170;28;20545;-81
2023/01/25 04:27:38;;;;;;;6.18;4.95;;;;;;;-0.88;81.37;94862.47;4954945;28;20382;-78
2023/01/25 04:30:04;;;;;;;8.05;5.75;;;;;;;-1.10;81.52;94882.94;4958346;28;20143;-79
2023/01/25 04:32:29;;;;;;;7.28;4.95;;;;;;;-0.92;80.47;94879.56;4957553;28;20070;-79
2023/01/25 04:34:55;;;;;;;8.45;5.80;;;;;;;-1.18;80.24;94863.13;4957795;28;20472;-79
2023/01/25 04:37:20;;;;;;;8.23;6.07;;;;;;;-1.14;80.23;94861.69;4958209;28;20050;-79
2023/01/25 04:39:45;;;;;;;7.70;5.55;;;;;;;-0.96;79.94;94885.22;4960364;28;20034;-80
2023/01/25 04:42:11;;;;;;;8.07;5.55;;;;;;;-1.22;80.38;94890.69;4958412;28;20062;-79
2023/01/25 04:44:36;;;;;;;7.55;5.70;;;;;;;-1.15;80.34;94882.78;4958504;28;20205;-79
2023/01/25 04:47:02;;;;;;;8.18;5.30;;;;;;;-1.43;79.52;94810.16;4957426;28;20054;-79
2023/01/25 04:49:28;;;;;;;8.15;4.55;;;;;;;-1.32;80.45;94900.81;4958390;28;20046;-81
2023/01/25 04:51:53;;;;;;;8.57;5.93;;;;;;;-1.62;80.10;94853.66;4957482;28;20043;-78
2023/01/25 04:54:18;;;;;;;8.40;5.72;;;;;;;-1.35;80.29;94880.34;4950368;28;20034;-80
2023/01/25 04:56:44;;;;;;;6.25;5.20;;;;;;;-0.82;78.94;94890.31;4959314;28;20458;-80
2023/01/25 04:59:10;;;;;;;6.97;5.28;;;;;;;-0.74;77.45;94896.06;4959979;28;20493;-80
2023/01/25 05:01:35;;;;;;;8.20;5.78;;;;;;;-1.13;78.23;94886.78;4971234;28;20889;-80
2023/01/25 05:04:00;;;;;;;9.82;6.25;;;;;;;-1.29;79.48;94873.47;4979287;28;20642;-79
2023/01/25 05:06:26;;;;;;;10.43;6.18;;;;;;;-0.87;78.83;94877.13;4977257;28;20033;-79
2023/01/25 05:08:51;;;;;;;6.93;5.05;;;;;;;-0.73;78.00;94879.38;4979431;28;20280;-80
2023/01/25 05:11:17;;;;;;;6.78;5.25;;;;;;;-0.72;76.76;94843.56;4977591;28;20046;-80
2023/01/25 05:13:42;;;;;;;9.93;6.78;;;;;;;-1.88;76.08;94685.13;4979352;28;20976;-80
2023/01/25 05:16:07;;;;;;;8.63;6.05;;;;;;;-0.38;76.01;94882.19;4959659;28;20038;-80
2023/01/25 05:18:33;;;;;;;8.80;6.47;;;;;;;-0.55;74.84;94855.06;4979304;28;20072;-79
2023/01/25 05:20:58;;;;;;;10.00;6.80;;;;;;;-0.46;74.78;94864.19;4978401;28;20133;-79
2023/01/25 05:23:24;;;;;;;15.90;8.23;;;;;;;-0.59;74.51;94839.03;4979618;28;20519;-80
2023/01/25 05:28:33;;;;;;;10.23;6.45;;;;;;;0.12;73.84;94887.22;4976485;28;20132;-81
2023/01/25 05:31:02;;;;;;;10.13;6.85;;;;;;;-0.24;73.30;94838.41;4975213;28;20038;-79
2023/01/25 05:33:28;;;;;;;10.52;5.63;;;;;;;0.28;72.51;94887.41;4976664;28;20022;-80
2023/01/25 05:35:55;;;;;;;7.65;5.00;;;;;;;-0.17;72.99;94888.78;4976022;28;20042;-77
2023/01/25 05:38:20;;;;;;;5.57;4.28;;;;;;;-0.20;73.56;94895.28;4975907;28;20057;-80
2023/01/25 05:40:46;;;;;;;6.47;5.20;;;;;;;-0.17;73.35;94862.63;4977558;28;20482;-79
2023/01/25 05:43:11;;;;;;;6.53;3.85;;;;;;;-0.18;72.84;94887.19;4977414;28;20054;-77
2023/01/25 05:45:36;;;;;;;7.93;5.50;;;;;;;-1.07;74.62;94861.63;4976145;28;20242;-77
2023/01/25 05:48:05;;;;;;;9.02;5.80;;;;;;;-1.21;76.29;94860.94;4976999;28;20446;-76
2023/01/25 05:50:30;;;;;;;10.45;6.57;;;;;;;-0.78;75.71;94886.25;4976916;28;20121;-77
2023/01/25 05:52:56;;;;;;;7.53;5.55;;;;;;;-0.83;75.23;94878.28;4973333;28;20056;-77
2023/01/25 05:55:21;;;;;;;11.07;6.85;;;;;;;-0.66;74.97;94874.06;4970991;28;20048;-78
2023/01/25 05:57:47;;;;;;;7.72;5.45;;;;;;;-0.57;74.20;94846.63;4975113;28;20557;-79
2023/01/25 06:00:13;;;;;;;8.50;5.70;;;;;;;-1.42;77.10;94900.47;4973575;28;20105;-78
2023/01/25 06:02:38;;;;;;;9.27;6.75;;;;;;;-1.54;79.04;94902.16;4957831;28;20047;-80
2023/01/25 06:05:04;;;;;;;8.32;5.47;;;;;;;-1.57;79.60;94894.75;4978349;28;20431;-77
2023/01/25 06:07:35;;;;;;;10.77;7.03;;;;;;;-2.26;81.51;94878.09;4967688;28;20133;-79
2023/01/25 06:10:00;;;;;;;8.23;6.00;;;;;;;-1.91;81.68;94888.97;4959092;28;20494;-77
2023/01/25 06:12:26;;;;;;;8.77;6.15;;;;;;;-1.59;81.02;94899.38;4978057;28;20033;-78
2023/01/25 06:14:52;;;;;;;9.43;6.10;;;;;;;-1.68;80.35;94887.59;4977945;28;20451;-77
2023/01/25 06:17:18;;;;;;;8.55;6.18;;;;;;;-1.62;80.00;94905.03;4958743;28;20068;-78
2023/01/25 06:19:43;;;;;;;8.43;6.35;;;;;;;-1.54;79.67;94891.72;4959113;28;20030;-78
2023/01/25 06:22:08;;;;;;;9.80;6.97;;;;;;;-1.17;78.82;94885.63;4959517;28;20045;-78
2023/01/25 06:24:34;;;;;;;9.23;6.35;;;;;;;-0.85;77.05;94891.53;4975322;28;20565;-77
2023/01/25 06:26:59;;;;;;;9.20;6.45;;;;;;;-0.75;75.95;94885.81;4979627;28;20037;-79
2023/01/25 06:29:25;;;;;;;8.18;5.40;;;;;;;-0.58;75.25;94884.25;4974059;28;20042;-81
2023/01/25 06:31:50;;;;;;;11.77;6.88;;;;;;;-0.39;74.53;94885.03;4976930;28;20936;-81
2023/01/25 06:34:15;;;;;;;8.70;5.47;;;;;;;-0.66;74.16;94868.84;4975399;28;20035;-79
2023/01/25 06:36:41;;;;;;;8.13;5.10;;;;;;;-0.71;75.01;94897.44;4953580;28;20033;-80
2023/01/25 06:39:07;;;;;;;7.25;5.85;;;;;;;-0.57;75.54;94899.69;4978113;28;20038;-79
2023/01/25 06:41:32;;;;;;;5.55;4.38;;;;;;;-0.37;74.08;94889.03;4976253;28;20469;-79
2023/01/25 06:43:57;;;;;;;5.57;4.82;;;;;;;-0.60;74.56;94907.97;4977870;28;20030;-79
2023/01/25 06:46:23;;;;;;;8.95;5.13;;;;;;;-0.50;74.71;94899.63;4977164;28;20554;-80
2023/01/25 06:48:48;;;;;;;7.97;5.15;;;;;;;-0.39;74.67;94900.72;4975774;28;20077;-79
2023/01/25 06:51:15;;;;;;;6.72;4.65;;;;;;;-0.25;73.56;94881.25;4973838;28;20081;-79
2023/01/25 06:53:43;;;;;;;6.90;5.05;;;;;;;-0.19;73.66;94904.69;4970295;28;20034;-78
2023/01/25 06:56:11;;;;;;;9.75;6.82;;;;;;;-0.37;73.92;94899.47;4975699;28;20153;-78
2023/01/25 06:58:36;;;;;;;7.38;5.35;;;;;;;-0.44;73.68;94880.47;4958445;28;20046;-79
2023/01/25 07:01:20;;;;;;;9.23;5.93;;;;;;;-0.65;74.97;94886.13;4974219;28;20035;-79
2023/01/25 07:03:53;;;;;;;8.23;6.57;;;;;;;-1.05;75.77;94886.50;4971650;28;20034;-80
2023/01/25 07:06:19;;;;;;;8.38;6.65;;;;;;;-0.88;77.20;94897.22;4961242;28;20397;-78
2023/01/25 07:08:45;;;;;;;9.68;7.68;;;;;;;-0.90;77.27;94904.44;4976306;28;20041;-79
2023/01/25 07:11:12;;;;;;;9.80;6.90;;;;;;;-0.72;76.42;94893.22;4974619;28;20282;-80
2023/01/25 07:13:41;;;;;;;9.77;7.45;;;;;;;-1.43;78.30;94888.44;4976653;28;20027;-79
2023/01/25 07:16:10;;;;;;;8.68;7.55;;;;;;;-1.68;80.22;94900.66;4973872;28;20119;-80
2023/01/25 07:18:39;;;;;;;12.50;8.57;;;;;;;-2.22;81.79;94882.88;4951833;28;20022;-79
2023/01/25 07:21:06;;;;;;;13.55;9.40;;;;;;;-1.80;81.88;94889.31;4968484;28;20018;-79
2023/01/25 07:23:33;;;;;;;11.07;8.15;;;;;;;-2.37;83.19;94896.19;4974589;28;20573;-80
2023/01/25 07:25:59;;;;;;;13.38;8.27;;;;;;;-2.24;83.47;94905.75;4972982;28;20085;-79
2023/01/25 07:28:25;;;;;;;16.05;10.05;;;;;;;-2.50;84.56;94901.44;4974829;28;20495;-79
2023/01/25 07:30:50;;;;;;;15.85;10.55;;;;;;;-2.61;85.56;94907.28;4958555;28;20041;-79
2023/01/25 07:33:16;;;;;;;16.38;11.35;;;;;;;-2.43;85.32;94907.41;4975403;28;20407;-82
2023/01/25 07:35:42;;;;;;;14.10;10.77;;;;;;;-2.63;85.76;94906.69;4955770;28;20503;-78
2023/01/25 07:38:08;;;;;;;15.90;10.23;;;;;;;-2.24;85.32;94926.63;4967686;28;20051;-79
2023/01/25 07:40:33;;;;;;;16.70;11.63;;;;;;;-2.40;85.13;94917.44;4948020;28;20034;-79
2023/01/25 07:42:59;;;;;;;15.70;11.20;;;;;;;-2.52;85.38;94898.22;4976426;28;20093;-79
2023/01/25 07:45:31;;;;;;;16.58;10.82;;;;;;;-2.22;84.63;94894.13;4962762;28;20026;-79
2023/01/25 07:47:57;;;;;;;22.65;14.70;;;;;;;-1.99;83.84;94909.22;4957934;28;20034;-78
2023/01/25 07:50:23;;;;;;;20.17;12.90;;;;;;;-2.77;84.80;94862.44;4976592;28;20080;-78
2023/01/25 07:52:48;;;;;;;24.42;15.00;;;;;;;-2.39;85.68;94924.25;4939255;28;20074;-78
2023/01/25 07:55:14;;;;;;;19.45;13.88;;;;;;;-2.49;85.15;94861.38;4955090;28;20043;-80
2023/01/25 07:57:40;;;;;;;22.70;14.90;;;;;;;-2.33;84.97;94873.91;4937544;28;20373;-79
2023/01/25 08:00:06;;;;;;;19.40;12.55;;;;;;;-1.73;84.17;94910.91;4930722;28;20500;-80
2023/01/25 08:02:32;;;;;;;22.00;13.50;;;;;;;-1.80;83.50;94921.38;4937383;28;20703;-80
2023/01/25 08:04:57;;;;;;;30.27;16.08;;;;;;;-2.25;84.37;94889.31;4954308;28;20671;-78
2023/01/25 08:07:23;;;;;;;18.08;12.75;;;;;;;-1.88;84.17;94930.25;4955932;28;20046;-78
2023/01/25 08:09:48;;;;;;;19.52;13.25;;;;;;;-1.64;83.12;94920.88;4934933;28;20136;-79
2023/01/25 08:12:16;;;;;;;26.05;13.73;;;;;;;-1.79;84.19;94920.38;4953932;28;20026;-78
2023/01/25 08:14:41;;;;;;;21.75;13.75;;;;;;;-1.48;82.68;94896.09;4952891;28;20524;-79
2023/01/25 08:17:07;;;;;;;18.65;14.27;;;;;;;-1.58;82.17;94890.53;4952232;28;20420;-78
2023/01/25 08:19:32;;;;;;;21.05;13.65;;;;;;;-1.31;82.23;94907.59;4950461;28;21027;-80
2023/01/25 08:21:57;;;;;;;21.42;13.20;;;;;;;-1.50;82.22;94900.72;4953156;28;20137;-79
2023/01/25 08:24:23;;;;;;;24.95;16.05;;;;;;;-1.75;83.16;94902.50;4956467;28;20109;-80
2023/01/25 08:26:49;;;;;;;20.80;13.35;;;;;;;-1.71;82.91;94888.03;4949246;28;20034;-80
2023/01/25 08:29:15;;;;;;;23.85;14.82;;;;;;;-1.85;83.37;94895.91;4946388;28;20045;-79
2023/01/25 08:31:42;;;;;;;22.30;15.55;;;;;;;-1.85;84.32;94911.56;4948707;28;20534;-80
2023/01/25 08:34:08;;;;;;;25.08;16.10;;;;;;;-2.00;84.58;94911.06;4951296;28;20035;-81
2023/01/25 08:36:33;;;;;;;20.65;14.35;;;;;;;-2.11;84.98;94890.88;4936734;28;20054;-80
2023/01/25 08:39:03;;;;;;;20.42;13.90;;;;;;;-2.00;85.42;94912.88;4936837;28;20557;-79
2023/01/25 08:41:31;;;;;;;25.23;15.25;;;;;;;-1.93;85.74;94911.00;4955186;28;20117;-80
2023/01/25 08:43:57;;;;;;;25.00;15.20;;;;;;;-2.31;86.79;94908.38;4952372;28;20419;-80
2023/01/25 08:46:24;;;;;;;27.42;17.35;;;;;;;-2.23;87.22;94912.56;4953381;28;20077;-79
2023/01/25 08:48:56;;;;;;;26.17;17.92;;;;;;;-2.58;87.68;94879.00;4951209;28;20049;-80
2023/01/25 08:51:23;;;;;;;23.27;15.45;;;;;;;-2.33;88.21;94892.16;4958007;28;20712;-80
2023/01/25 08:53:49;;;;;;;23.27;15.52;;;;;;;-1.97;87.35;94912.44;4952471;28;20034;-78
2023/01/25 08:56:16;;;;;;;23.90;15.00;;;;;;;-1.92;86.49;94884.75;4954085;28;20260;-79
2023/01/25 08:58:46;;;;;;;22.52;15.70;;;;;;;-2.06;86.43;94909.28;4973966;28;20511;-79
2023/01/25 09:01:13;;;;;;;22.27;15.00;;;;;;;-1.85;85.89;94888.09;4956569;28;21055;-79
2023/01/25 09:03:41;;;;;;;20.73;14.75;;;;;;;-1.25;85.05;94893.69;4954599;28;20026;-78
2023/01/25 09:06:08;;;;;;;22.80;14.85;;;;;;;-1.06;83.19;94879.69;4973993;28;20554;-80
2023/01/25 09:08:34;;;;;;;23.02;15.73;;;;;;;-0.74;82.40;94908.31;4971424;28;20486;-80
2023/01/25 09:11:15;;;;;;;23.25;14.70;;;;;;;-0.82;81.42;94901.56;4975972;28;20072;-79
2023/01/25 09:13:42;;;;;;;23.38;14.80;;;;;;;-1.31;82.42;94902.38;4949389;28;20336;-78
2023/01/25 09:16:10;;;;;;;21.55;15.80;;;;;;;-1.30;82.98;94882.31;4973269;28;20050;-79
2023/01/25 09:18:37;;;;;;;22.58;15.40;;;;;;;-1.68;82.61;94765.00;4974043;28;20022;-80
2023/01/25 09:21:21;;;;;;;20.95;16.23;;;;;;;-0.74;81.45;94884.81;4975364;28;20026;-80
2023/01/25 09:23:49;;;;;;;19.83;15.05;;;;;;;-0.90;81.40;94848.81;4972960;28;20465;-79
2023/01/25 09:26:15;;;;;;;25.45;17.02;;;;;;;-1.20;82.68;94893.06;4973601;28;20038;-79
2023/01/25 09:28:45;;;;;;;19.80;15.70;;;;;;;-1.09;83.56;94885.34;4973055;28;20030;-78
2023/01/25 09:31:10;;;;;;;25.10;17.00;;;;;;;-1.36;84.01;94867.50;4975179;28;20514;-80
2023/01/25 09:33:39;;;;;;;24.67;16.50;;;;;;;-2.11;84.79;94781.38;4973563;28;20037;-80
2023/01/25 09:36:05;;;;;;;24.08;16.05;;;;;;;-1.64;84.96;94841.81;4974910;28;20084;-78
2023/01/25 09:38:31;;;;;;;25.33;16.52;;;;;;;-1.82;85.68;94842.56;4972158;28;20507;-79
2023/01/25 09:41:24;;;;;;;21.80;16.73;;;;;;;-1.49;85.47;94871.81;4975295;28;20169;-79
2023/01/25 09:44:17;;;;;;;22.52;15.13;;;;;;;-1.51;85.65;94860.78;4972906;28;20241;-78
2023/01/25 09:46:51;;;;;;;20.60;15.32;;;;;;;-1.43;84.49;94831.81;4973711;28;20505;-79
2023/01/25 09:49:28;;;;;;;24.77;16.60;;;;;;;-1.22;84.59;94853.34;4957606;28;20054;-79
2023/01/25 09:51:57;;;;;;;20.88;14.73;;;;;;;-1.40;85.14;94846.25;4973858;28;20881;-79
2023/01/25 09:54:23;;;;;;;22.30;16.20;;;;;;;-1.67;86.12;94834.44;4975163;28;20126;-79
2023/01/25 09:56:51;;;;;;;24.52;17.13;;;;;;;-1.67;87.25;94844.88;4972318;28;20038;-78
2023/01/25 09:59:22;;;;;;;20.27;15.98;;;;;;;-1.64;86.81;94794.88;4970210;28;20042;-78
2023/01/25 10:02:04;;;;;;;19.90;14.57;;;;;;;-0.99;84.92;94838.66;4959002;28;20050;-79
2023/01/25 10:04:39;;;;;;;22.00;15.73;;;;;;;-1.37;85.03;94804.09;4974823;28;20046;-79
2023/01/25 10:07:21;;;;;;;20.67;16.17;;;;;;;-1.05;85.17;94812.59;4973087;28;20042;-80
2023/01/25 10:10:04;;;;;;;26.20;16.63;;;;;;;-1.21;85.63;94824.38;4973809;28;20027;-78
2023/01/25 10:12:36;;;;;;;26.38;18.40;;;;;;;-1.46;86.68;94821.03;4954610;28;20030;-79
2023/01/25 10:15:04;;;;;;;27.40;18.88;;;;;;;-1.45;86.78;94788.69;4957984;28;20808;-78
2023/01/25 10:17:36;;;;;;;29.33;18.38;;;;;;;-1.28;86.90;94813.22;4974644;28;20030;-79
2023/01/25 10:20:27;;;;;;;25.63;17.17;;;;;;;-1.54;86.86;94797.78;4952950;28;20391;-78
2023/01/25 10:23:30;;;;;;;20.67;14.25;;;;;;;-1.36;86.46;94808.25;4973366;28;20026;-79
2023/01/25 10:26:26;;;;;;;20.80;15.68;;;;;;;-1.59;86.53;94792.41;4973580;28;20042;-80
2023/01/25 10:29:00;;;;;;;21.35;15.68;;;;;;;-1.73;86.18;94757.81;4953258;28;20042;-78
2023/01/25 10:31:47;;;;;;;20.33;15.35;;;;;;;-1.47;86.12;94785.50;4956704;28;20050;-78
2023/01/25 10:34:44;;;;;;;23.92;15.90;;;;;;;-1.46;86.38;94797.53;4972059;28;20069;-79
2023/01/25 10:37:14;;;;;;;18.35;13.75;;;;;;;-1.36;86.31;94790.00;4948717;28;20046;-79
2023/01/25 10:39:53;;;;;;;23.77;15.65;;;;;;;-1.41;85.56;94766.38;4973575;28;20038;-80
2023/01/25 10:42:21;;;;;;;20.48;15.65;;;;;;;-1.77;85.86;94755.88;4953755;28;20030;-78
2023/01/25 10:44:46;;;;;;;20.90;15.05;;;;;;;-1.72;86.54;94775.06;4973798;28;20037;-78
2023/01/25 10:47:20;;;;;;;18.20;13.20;;;;;;;-1.77;87.16;94771.50;4971717;28;20034;-78
2023/01/25 10:49:51;;;;;;;15.98;12.35;;;;;;;-1.54;86.51;94743.00;4972403;28;20038;-78
2023/01/25 10:52:19;;;;;;;15.80;12.90;;;;;;;-1.03;85.39;94764.38;4972984;28;20069;-78
2023/01/25 10:54:46;;;;;;;16.92;13.77;;;;;;;-0.93;84.60;94763.88;4956903;28;20061;-79
2023/01/25 10:57:17;;;;;;;20.35;15.07;;;;;;;-1.00;83.58;94727.38;4972928;28;20137;-78
2023/01/25 10:59:49;;;;;;;19.80;14.88;;;;;;;-0.87;83.64;94747.31;4969232;28;20069;-78
2023/01/25 11:02:38;;;;;;;18.25;12.88;;;;;;;-0.62;82.72;94753.22;4970240;28;20042;-78
2023/01/25 11:05:25;;;;;;;18.98;13.73;;;;;;;-1.19;82.28;94691.84;4972847;28;20038;-79
2023/01/25 11:07:50;;;;;;;15.80;12.02;;;;;;;-0.82;81.48;94754.47;4970069;28;20261;-79
2023/01/25 11:10:28;;;;;;;14.52;11.63;;;;;;;-0.72;81.56;94750.34;4969279;28;20049;-78
2023/01/25 11:13:12;;;;;;;12.95;10.52;;;;;;;-0.34;80.09;94749.25;4967907;28;21419;-78
2023/01/25 11:15:39;;;;;;;13.57;11.43;;;;;;;-0.75;79.22;94687.28;4972536;28;20068;-78
2023/01/25 11:18:06;;;;;;;16.00;11.50;;;;;;;-0.13;78.79;94738.28;4968600;28;20030;-78
2023/01/25 11:20:31;;;;;;;13.85;10.40;;;;;;;-0.41;78.20;94717.97;4954278;28;20043;-79
2023/01/25 11:22:57;;;;;;;14.77;11.13;;;;;;;-0.64;79.09;94723.91;4973393;28;20034;-79
2023/01/25 11:25:33;;;;;;;13.45;9.23;;;;;;;-0.93;78.91;94719.47;4972775;28;20042;-78
2023/01/25 11:28:22;;;;;;;12.60;9.60;;;;;;;-1.09;79.50;94671.25;4972435;28;20552;-78
2023/01/25 11:30:50;;;;;;;15.07;11.05;;;;;;;-0.54;78.57;94726.00;4964272;28;20427;-79
2023/01/25 11:33:17;;;;;;;15.98;11.68;;;;;;;-0.65;78.53;94713.69;4953182;28;20064;-78
2023/01/25 11:36:13;;;;;;;12.52;11.13;;;;;;;-0.51;79.16;94718.50;4972904;28;20050;-78